Time;durP1;ratioP1;P1;durP2;ratioP2;P2;SDS_P1;SDS_P2;PMS_P1;PMS_P2;Temp;Humidity;BMP_temperature;BMP_pressure;BME280_temperature;BME280_humidity;BME280_pressure;Samples;Min_cycle;Max_cycle;Signal;HPM_P1;HPM_P2
2022/06/21 00:01:13;;;;;;;1.13;0.40;;;;;;;19.76;45.52;100302.75;5011131;28;20458;-73
2022/06/21 00:03:39;;;;;;;0.40;0.23;;;;;;;19.92;45.29;100295.00;5016185;28;20610;-73
2022/06/21 00:06:05;;;;;;;0.77;0.63;;;;;;;19.98;45.24;100291.81;5018367;28;20471;-73
2022/06/21 00:08:33;;;;;;;0.53;0.40;;;;;;;19.83;45.51;100289.41;5024913;28;20431;-73
2022/06/21 00:10:59;;;;;;;0.80;0.40;;;;;;;19.73;45.82;100288.81;5028216;28;20423;-73
2022/06/21 00:13:28;;;;;;;0.40;0.40;;;;;;;19.63;46.20;100285.19;5011083;28;20410;-73
2022/06/21 00:16:01;;;;;;;1.37;0.43;;;;;;;19.63;46.31;100287.09;5029785;28;20854;-73
2022/06/21 00:18:30;;;;;;;0.82;0.43;;;;;;;19.69;46.28;100274.91;5030859;28;20465;-72
2022/06/21 00:20:56;;;;;;;2.70;0.60;;;;;;;19.70;46.35;100282.00;5020792;28;20417;-73
2022/06/21 00:23:24;;;;;;;1.13;0.77;;;;;;;19.59;46.63;100283.38;5023302;28;20415;-73
2022/06/21 00:25:49;;;;;;;0.30;0.20;;;;;;;19.47;47.01;100278.38;5029335;28;20399;-73
2022/06/21 00:28:16;;;;;;;0.30;0.30;;;;;;;19.40;47.03;100291.72;5021969;28;20452;-73
2022/06/21 00:30:42;;;;;;;0.40;0.38;;;;;;;19.47;47.14;100283.06;5029012;28;20423;-73
2022/06/21 00:33:11;;;;;;;3.33;0.97;;;;;;;19.53;47.14;100288.16;5013275;28;20483;-73
2022/06/21 00:35:39;;;;;;;2.63;0.57;;;;;;;19.55;47.02;100288.66;5013177;28;20653;-73
2022/06/21 00:38:05;;;;;;;0.38;0.38;;;;;;;19.47;47.30;100280.31;5021890;28;20462;-73
2022/06/21 00:40:32;;;;;;;0.47;0.40;;;;;;;19.48;47.33;100276.47;5027176;28;20410;-73
2022/06/21 00:43:21;;;;;;;1.42;0.60;;;;;;;19.53;47.34;100268.91;5008585;28;20766;-73
2022/06/21 00:45:49;;;;;;;0.50;0.40;;;;;;;19.55;47.10;100263.13;5026186;28;20419;-73
2022/06/21 00:48:33;;;;;;;3.67;0.60;;;;;;;19.61;47.18;100264.63;5022646;28;20420;-73
2022/06/21 00:51:20;;;;;;;0.30;0.30;;;;;;;19.52;47.48;100272.78;5012707;28;20429;-73
2022/06/21 00:53:55;;;;;;;0.80;0.47;;;;;;;19.41;47.72;100273.31;5020186;28;20414;-73
2022/06/21 00:56:26;;;;;;;0.50;0.22;;;;;;;19.39;47.96;100270.03;5021763;28;21108;-73
2022/06/21 00:58:51;;;;;;;0.90;0.50;;;;;;;19.31;47.95;100268.81;5028243;28;20407;-73
2022/06/21 01:01:26;;;;;;;0.30;0.30;;;;;;;19.35;48.09;100269.84;5014273;28;20418;-73
2022/06/21 01:03:58;;;;;;;0.52;0.40;;;;;;;19.35;48.20;100272.59;5024094;28;20797;-72
2022/06/21 01:06:35;;;;;;;0.60;0.40;;;;;;;19.30;48.21;100255.41;5018171;28;20475;-72
2022/06/21 01:09:11;;;;;;;0.32;0.32;;;;;;;19.35;48.24;100263.53;5013585;28;20427;-73
2022/06/21 01:11:45;;;;;;;0.28;0.28;;;;;;;19.30;48.05;100247.94;5014521;28;20958;-73
2022/06/21 01:14:12;;;;;;;0.82;0.52;;;;;;;19.17;48.47;100246.84;5028644;28;20430;-73
2022/06/21 01:16:39;;;;;;;1.10;0.30;;;;;;;19.12;48.70;100243.41;5027979;28;20760;-72
2022/06/21 01:19:14;;;;;;;1.30;0.40;;;;;;;19.05;48.75;100232.81;5025730;28;20462;-73
2022/06/21 01:21:44;;;;;;;0.38;0.38;;;;;;;19.13;48.81;100225.81;5026785;28;20888;-73
2022/06/21 01:24:21;;;;;;;0.98;0.50;;;;;;;19.22;48.67;100223.97;5024811;28;20406;-73
2022/06/21 01:26:53;;;;;;;1.63;0.63;;;;;;;19.16;48.90;100205.97;5026259;28;20466;-73
2022/06/21 01:29:21;;;;;;;0.40;0.40;;;;;;;19.07;48.99;100214.09;5024356;28;20415;-73
2022/06/21 01:31:47;;;;;;;1.70;0.50;;;;;;;19.06;49.03;100211.69;5026855;28;20898;-73
2022/06/21 01:34:22;;;;;;;1.25;0.70;;;;;;;19.13;48.97;100210.13;5011929;28;20480;-73
2022/06/21 01:36:51;;;;;;;1.83;0.57;;;;;;;19.11;48.97;100206.06;5019629;28;20422;-73
2022/06/21 01:39:23;;;;;;;0.85;0.28;;;;;;;19.14;48.83;100203.50;5021620;28;20594;-73
2022/06/21 01:41:56;;;;;;;3.00;0.50;;;;;;;19.15;48.92;100193.34;5033408;28;20422;-73
2022/06/21 01:44:29;;;;;;;0.40;0.40;;;;;;;19.18;48.76;100192.72;5007235;28;20509;-73
2022/06/21 01:46:55;;;;;;;2.20;0.50;;;;;;;19.08;49.00;100207.50;5030208;28;20819;-73
2022/06/21 01:49:25;;;;;;;0.95;0.50;;;;;;;19.05;49.05;100201.78;5030570;28;20894;-73
2022/06/21 01:52:06;;;;;;;0.50;0.50;;;;;;;18.95;49.39;100196.50;5022232;28;20497;-73
2022/06/21 01:54:36;;;;;;;2.10;0.50;;;;;;;19.05;49.00;100199.88;5013562;28;20425;-73
2022/06/21 01:57:01;;;;;;;2.10;0.70;;;;;;;19.04;49.13;100191.91;5023153;28;20397;-73
2022/06/21 01:59:33;;;;;;;0.40;0.35;;;;;;;19.06;49.07;100196.00;5023442;28;20415;-73
2022/06/21 02:02:05;;;;;;;0.82;0.40;;;;;;;18.96;49.35;100188.00;5020229;28;20412;-73
2022/06/21 02:04:44;;;;;;;1.30;0.30;;;;;;;18.86;49.35;100193.69;5022370;28;20479;-73
2022/06/21 02:07:14;;;;;;;2.10;0.30;;;;;;;18.80;49.63;100186.69;5018343;28;21099;-73
2022/06/21 02:09:46;;;;;;;0.98;0.38;;;;;;;18.87;49.55;100186.28;5020486;28;20420;-73
2022/06/21 02:12:13;;;;;;;0.80;0.50;;;;;;;18.91;49.41;100184.50;5024159;28;20786;-73
2022/06/21 02:14:42;;;;;;;0.55;0.35;;;;;;;18.73;50.00;100182.72;5017174;28;20902;-73
2022/06/21 02:17:28;;;;;;;1.20;0.60;;;;;;;18.65;50.02;100179.56;5020380;28;20768;-73
2022/06/21 02:19:57;;;;;;;2.78;0.75;;;;;;;18.69;49.91;100185.25;5025099;28;20414;-73
2022/06/21 02:22:25;;;;;;;1.50;0.50;;;;;;;18.63;49.94;100176.31;5032405;28;20490;-73
2022/06/21 02:24:52;;;;;;;0.50;0.50;;;;;;;18.58;50.27;100168.16;5020489;28;20426;-73
2022/06/21 02:27:20;;;;;;;1.05;0.50;;;;;;;18.54;50.20;100164.38;5015345;28;20513;-73
2022/06/21 02:29:51;;;;;;;0.63;0.50;;;;;;;18.51;50.24;100158.69;5029413;28;20453;-73
2022/06/21 02:32:37;;;;;;;1.10;0.60;;;;;;;18.51;50.17;100147.72;5025464;28;20524;-73
2022/06/21 02:35:16;;;;;;;0.50;0.40;;;;;;;18.40;50.45;100166.31;5012689;28;20453;-73
2022/06/21 02:37:44;;;;;;;0.98;0.35;;;;;;;18.34;50.60;100156.50;5024593;28;20403;-73
2022/06/21 02:40:23;;;;;;;1.73;0.50;;;;;;;18.38;50.54;100164.97;5022631;28;20932;-73
2022/06/21 02:42:51;;;;;;;1.00;0.40;;;;;;;18.36;50.54;100178.19;5018415;28;20457;-73
2022/06/21 02:45:47;;;;;;;1.17;0.40;;;;;;;18.36;50.62;100175.44;5029581;28;20411;-73
2022/06/21 02:48:19;;;;;;;0.40;0.40;;;;;;;18.31;50.53;100168.09;4999246;28;20815;-73
2022/06/21 02:50:59;;;;;;;1.52;0.60;;;;;;;18.23;50.72;100168.00;5018213;28;20428;-73
2022/06/21 02:53:30;;;;;;;1.20;0.50;;;;;;;18.17;51.02;100161.81;5023012;28;20505;-73
2022/06/21 02:56:19;;;;;;;1.30;0.50;;;;;;;18.25;50.81;100149.28;5005540;28;20449;-73
2022/06/21 02:58:51;;;;;;;0.60;0.60;;;;;;;18.37;50.45;100135.91;5017446;28;20905;-73
2022/06/21 03:01:20;;;;;;;2.40;0.43;;;;;;;18.33;50.48;100141.19;5026929;28;20439;-73
2022/06/21 03:03:47;;;;;;;0.60;0.38;;;;;;;18.20;50.74;100155.72;5029370;28;20480;-73
2022/06/21 03:06:16;;;;;;;0.40;0.40;;;;;;;18.18;51.10;100157.91;5013110;28;20823;-73
2022/06/21 03:08:56;;;;;;;0.80;0.50;;;;;;;18.21;50.87;100148.28;5020014;28;20494;-73
2022/06/21 03:11:23;;;;;;;0.67;0.50;;;;;;;18.21;50.81;100143.59;5020618;28;20907;-73
2022/06/21 03:13:49;;;;;;;2.20;0.80;;;;;;;18.18;51.01;100143.41;5018722;28;20407;-73
2022/06/21 03:16:19;;;;;;;0.80;0.47;;;;;;;18.06;51.05;100141.97;5030072;28;20498;-73
2022/06/21 03:18:49;;;;;;;0.60;0.40;;;;;;;18.07;50.90;100151.00;5031231;28;20399;-73
2022/06/21 03:21:15;;;;;;;0.93;0.40;;;;;;;18.19;50.86;100143.09;5013032;28;20883;-73
2022/06/21 03:23:45;;;;;;;1.00;0.40;;;;;;;18.28;50.58;100143.19;5022744;28;20459;-73
2022/06/21 03:26:12;;;;;;;0.40;0.40;;;;;;;18.14;50.75;100133.03;5019515;28;20431;-73
2022/06/21 03:28:41;;;;;;;0.50;0.50;;;;;;;18.16;50.72;100127.25;5013328;28;20408;-72
2022/06/21 03:31:12;;;;;;;1.75;0.47;;;;;;;18.24;50.36;100120.25;5008108;28;20395;-72
2022/06/21 03:33:40;;;;;;;0.32;0.32;;;;;;;18.29;50.40;100117.41;5019308;28;20422;-73
2022/06/21 03:36:08;;;;;;;2.15;0.45;;;;;;;18.40;49.75;100108.69;5026112;28;20411;-72
2022/06/21 03:38:39;;;;;;;0.50;0.40;;;;;;;18.23;50.07;100110.41;5018378;28;20495;-73
2022/06/21 03:43:54;;;;;;;1.40;0.47;;;;;;;18.23;50.28;100102.97;5023700;28;20418;-72
2022/06/21 03:46:29;;;;;;;1.20;0.68;;;;;;;18.29;50.41;100101.75;5024376;28;20395;-72
2022/06/21 03:49:28;;;;;;;3.55;0.43;;;;;;;18.22;50.17;100103.28;5026037;28;20403;-72
2022/06/21 03:51:55;;;;;;;0.50;0.50;;;;;;;18.08;50.56;100101.34;4977294;28;20441;-72
2022/06/21 03:54:30;;;;;;;0.77;0.70;;;;;;;18.10;50.64;100098.31;5022894;28;20769;-73
2022/06/21 03:57:23;;;;;;;2.40;0.50;;;;;;;18.14;50.63;100099.31;5029665;28;20750;-73
2022/06/21 03:59:56;;;;;;;1.00;0.38;;;;;;;18.13;50.61;100112.22;5006509;28;20411;-73
2022/06/21 04:03:09;;;;;;;2.05;0.63;;;;;;;18.26;50.45;100104.31;5027265;28;20438;-73
2022/06/21 04:05:45;;;;;;;0.75;0.40;;;;;;;18.22;50.50;100098.59;4968612;28;20415;-73
2022/06/21 04:08:19;;;;;;;1.30;0.60;;;;;;;18.15;50.44;100095.44;5025941;28;20470;-73
2022/06/21 04:10:49;;;;;;;1.40;0.60;;;;;;;18.20;50.56;100097.28;5019016;28;20453;-73
2022/06/21 04:13:20;;;;;;;3.33;0.77;;;;;;;18.36;50.20;100095.88;5010398;28;20408;-73
2022/06/21 04:16:02;;;;;;;0.75;0.50;;;;;;;18.24;50.38;100088.16;5023331;28;20901;-73
2022/06/21 04:18:33;;;;;;;0.90;0.47;;;;;;;18.25;50.27;100077.97;5026872;28;20508;-72
2022/06/21 04:21:17;;;;;;;1.90;0.50;;;;;;;18.24;50.31;100077.19;5024158;28;20497;-72
2022/06/21 04:23:58;;;;;;;2.20;0.40;;;;;;;18.15;50.38;100079.81;5029858;28;20407;-73
2022/06/21 04:26:34;;;;;;;2.28;0.80;;;;;;;18.29;50.18;100073.50;5030810;28;20450;-72
2022/06/21 04:29:07;;;;;;;0.70;0.60;;;;;;;18.34;50.08;100070.69;5020096;28;20431;-73
2022/06/21 04:31:45;;;;;;;0.70;0.70;;;;;;;18.35;49.95;100086.00;5028239;28;20411;-73
2022/06/21 04:34:27;;;;;;;1.70;0.40;;;;;;;18.41;49.83;100080.09;5028588;28;20771;-73
2022/06/21 04:37:13;;;;;;;0.47;0.47;;;;;;;18.41;49.85;100082.84;5029264;28;20747;-73
2022/06/21 04:39:49;;;;;;;1.65;0.60;;;;;;;18.47;49.61;100089.06;5027498;28;20395;-73
2022/06/21 04:42:42;;;;;;;2.63;0.60;;;;;;;18.44;49.59;100084.97;5027691;28;20430;-73
2022/06/21 04:45:15;;;;;;;1.50;0.40;;;;;;;18.45;49.56;100077.56;5014732;28;20410;-73
2022/06/21 04:47:49;;;;;;;1.27;0.30;;;;;;;18.52;49.39;100081.56;5015247;28;20414;-73
2022/06/21 04:50:17;;;;;;;1.98;0.75;;;;;;;18.53;49.21;100094.19;5031694;28;20478;-72
2022/06/21 04:52:52;;;;;;;1.02;0.75;;;;;;;18.49;49.23;100078.59;5032288;28;20882;-72
2022/06/21 04:55:23;;;;;;;2.13;0.70;;;;;;;18.56;49.09;100070.78;5032783;28;20423;-73
2022/06/21 04:57:48;;;;;;;1.00;0.57;;;;;;;18.63;48.81;100069.28;5029832;28;20460;-73
2022/06/21 05:00:19;;;;;;;1.40;1.30;;;;;;;18.77;48.56;100074.72;5033578;28;20411;-73
2022/06/21 05:02:54;;;;;;;1.00;0.90;;;;;;;18.87;48.30;100081.94;5034077;28;20843;-73
2022/06/21 05:05:25;;;;;;;1.63;0.90;;;;;;;18.97;48.01;100066.00;5028060;28;20739;-73
2022/06/21 05:08:06;;;;;;;3.25;1.48;;;;;;;18.98;47.90;100066.84;5030505;28;20506;-72
2022/06/21 05:10:36;;;;;;;1.38;1.35;;;;;;;19.00;47.84;100065.41;5026638;28;20408;-72
2022/06/21 05:13:06;;;;;;;0.75;0.75;;;;;;;19.04;47.74;100069.16;5025085;28;20415;-72
2022/06/21 05:15:36;;;;;;;0.80;0.80;;;;;;;19.08;47.57;100069.34;5030611;28;20487;-74
2022/06/21 05:18:13;;;;;;;1.63;0.60;;;;;;;19.05;47.47;100062.56;5021223;28;20490;-73
2022/06/21 05:20:48;;;;;;;4.97;0.90;;;;;;;19.02;47.59;100068.66;5030825;28;20422;-73
2022/06/21 05:23:13;;;;;;;0.60;0.60;;;;;;;19.04;47.57;100071.09;5027645;28;20549;-72
2022/06/21 05:25:41;;;;;;;3.00;0.70;;;;;;;19.01;47.46;100071.69;5032320;28;20411;-73
2022/06/21 05:28:34;;;;;;;2.60;0.90;;;;;;;18.93;47.59;100087.00;5033370;28;20486;-72
2022/06/21 05:31:01;;;;;;;0.53;0.50;;;;;;;18.92;47.70;100082.63;5032295;28;20411;-72
2022/06/21 05:33:51;;;;;;;1.50;0.67;;;;;;;19.03;47.50;100083.22;5027972;28;20408;-73
2022/06/21 05:36:30;;;;;;;1.55;0.95;;;;;;;19.14;47.34;100084.59;5022332;28;20941;-72
2022/06/21 05:39:04;;;;;;;1.93;0.87;;;;;;;19.17;47.24;100083.97;5025090;28;20544;-72
2022/06/21 05:41:36;;;;;;;1.53;0.57;;;;;;;19.23;47.19;100088.22;5027640;28;20422;-71
2022/06/21 05:44:08;;;;;;;1.95;0.60;;;;;;;19.29;46.93;100086.16;5030351;28;20454;-72
2022/06/21 05:46:49;;;;;;;2.28;0.80;;;;;;;19.38;46.90;100082.34;5029266;28;20402;-72
2022/06/21 05:49:25;;;;;;;2.25;0.80;;;;;;;19.44;46.61;100088.56;5006844;28;20438;-72
2022/06/21 05:51:55;;;;;;;1.95;0.80;;;;;;;19.54;46.81;100097.38;5032145;28;20407;-72
2022/06/21 05:54:26;;;;;;;1.67;0.60;;;;;;;19.70;46.37;100089.56;5025613;28;20426;-72
2022/06/21 05:56:51;;;;;;;0.60;0.57;;;;;;;19.74;46.45;100092.50;5023867;28;20400;-72
2022/06/21 05:59:19;;;;;;;0.80;0.60;;;;;;;19.82;46.33;100102.75;5015268;28;20418;-72
2022/06/21 06:01:50;;;;;;;7.47;1.10;;;;;;;19.85;46.22;100111.16;5028996;28;20445;-73
2022/06/21 06:04:18;;;;;;;2.30;0.63;;;;;;;19.87;46.48;100110.84;5031526;28;20419;-72
2022/06/21 06:06:46;;;;;;;2.55;0.82;;;;;;;19.86;46.07;100100.97;5023495;28;20411;-72
2022/06/21 06:09:19;;;;;;;2.65;0.85;;;;;;;19.82;46.15;100100.00;5022485;28;20399;-72
2022/06/21 06:12:02;;;;;;;3.17;0.70;;;;;;;19.80;46.06;100096.72;5028927;28;20395;-73
2022/06/21 06:14:34;;;;;;;1.80;0.80;;;;;;;19.73;46.04;100093.59;5023464;28;20502;-72
2022/06/21 06:17:05;;;;;;;1.27;0.80;;;;;;;19.71;46.18;100095.88;5030923;28;20465;-72
2022/06/21 06:19:45;;;;;;;0.70;0.70;;;;;;;19.66;46.27;100091.28;5031112;28;20403;-73
2022/06/21 06:22:23;;;;;;;1.50;0.65;;;;;;;19.75;46.12;100086.69;5030772;28;20407;-73
2022/06/21 06:25:01;;;;;;;1.00;0.90;;;;;;;19.87;45.92;100095.16;5032146;28;20403;-73
2022/06/21 06:27:45;;;;;;;2.25;1.10;;;;;;;20.01;45.85;100097.81;5022281;28;20399;-73
2022/06/21 06:30:17;;;;;;;1.85;0.70;;;;;;;20.13;45.56;100103.53;5009919;28;20429;-73
2022/06/21 06:32:49;;;;;;;0.85;0.65;;;;;;;20.20;45.45;100099.22;5030105;28;20414;-73
2022/06/21 06:35:21;;;;;;;2.58;0.70;;;;;;;20.35;45.29;100103.50;5032318;28;20987;-73
2022/06/21 06:37:46;;;;;;;0.85;0.80;;;;;;;20.54;44.85;100109.56;5012866;28;20405;-73
2022/06/21 06:40:37;;;;;;;2.53;0.77;;;;;;;20.66;44.53;100112.50;5028694;28;20400;-73
2022/06/21 06:43:16;;;;;;;2.20;0.77;;;;;;;20.72;44.41;100107.66;5019562;28;20485;-73
2022/06/21 06:45:42;;;;;;;2.20;0.90;;;;;;;20.75;44.41;100112.53;5024432;28;20748;-73
2022/06/21 06:48:22;;;;;;;3.20;0.70;;;;;;;20.81;44.47;100105.75;5031502;28;20456;-73
2022/06/21 06:50:59;;;;;;;6.40;1.40;;;;;;;20.89;44.18;100115.16;5030504;28;20801;-73
2022/06/21 06:53:33;;;;;;;1.35;0.98;;;;;;;20.91;44.08;100118.41;5025154;28;20403;-73
2022/06/21 06:56:03;;;;;;;2.50;0.90;;;;;;;20.94;44.08;100110.31;5029114;28;20433;-72
2022/06/21 06:58:44;;;;;;;1.73;1.07;;;;;;;20.92;44.06;100098.78;5024610;28;20404;-72
2022/06/21 07:01:15;;;;;;;4.03;0.85;;;;;;;21.00;43.87;100094.44;5011558;28;20412;-72
2022/06/21 07:03:51;;;;;;;1.65;0.88;;;;;;;21.02;43.84;100081.94;5004464;28;20400;-73
2022/06/21 07:06:18;;;;;;;2.80;1.40;;;;;;;21.07;43.68;100070.78;5029997;28;20415;-72
2022/06/21 07:08:55;;;;;;;4.40;0.88;;;;;;;21.22;43.42;100050.22;5030916;28;20419;-73
2022/06/21 07:11:30;;;;;;;3.38;1.20;;;;;;;21.23;43.36;100010.50;5026340;28;20750;-71
2022/06/21 07:13:58;;;;;;;2.53;1.20;;;;;;;21.31;43.27;100000.59;5027537;28;20413;-72
2022/06/21 07:16:24;;;;;;;8.50;1.20;;;;;;;21.28;43.39;100009.50;5031492;28;20430;-72
2022/06/21 07:18:53;;;;;;;3.08;1.13;;;;;;;21.18;43.61;100016.16;5024484;28;20420;-72
2022/06/21 07:21:20;;;;;;;1.58;0.80;;;;;;;21.18;44.05;100030.75;5025052;28;20502;-72
2022/06/21 07:23:46;;;;;;;4.33;1.10;;;;;;;21.22;44.10;100025.41;5030935;28;20403;-73
2022/06/21 07:26:29;;;;;;;1.13;1.00;;;;;;;21.31;43.93;100023.44;5030162;28;20402;-72
2022/06/21 07:29:21;;;;;;;2.47;1.08;;;;;;;21.31;43.89;99995.88;5025413;28;20414;-72
2022/06/21 07:31:53;;;;;;;3.42;1.17;;;;;;;21.34;43.94;100013.75;5026355;28;20399;-72
2022/06/21 07:34:27;;;;;;;2.28;1.10;;;;;;;21.16;44.04;100024.78;5031135;28;20411;-72
2022/06/21 07:36:58;;;;;;;1.77;0.88;;;;;;;21.01;44.44;100029.94;5026371;28;20496;-72
2022/06/21 07:39:46;;;;;;;1.30;0.70;;;;;;;21.12;44.54;100059.63;5023134;28;20407;-72
2022/06/21 07:42:24;;;;;;;2.45;1.30;;;;;;;21.29;44.14;100080.03;5024096;28;20481;-72
2022/06/21 07:44:58;;;;;;;3.17;0.80;;;;;;;21.44;44.24;100088.63;5024243;28;20414;-73
2022/06/21 07:47:29;;;;;;;1.73;1.17;;;;;;;21.57;43.86;100084.09;5028506;28;20434;-72
2022/06/21 07:50:02;;;;;;;4.93;1.25;;;;;;;21.67;43.87;100079.03;5003321;28;20412;-72
2022/06/21 07:52:46;;;;;;;2.50;1.10;;;;;;;21.85;43.65;100078.97;5023825;28;20461;-72
2022/06/21 07:55:19;;;;;;;3.08;1.02;;;;;;;22.02;43.45;100068.75;5028034;28;20446;-72
2022/06/21 07:57:49;;;;;;;8.70;1.02;;;;;;;22.26;43.09;100057.13;5027774;28;20407;-72
2022/06/21 08:00:20;;;;;;;4.88;1.08;;;;;;;22.42;42.81;100041.59;5026567;28;20411;-72
2022/06/21 08:08:38;;;;;;;1.50;0.87;;;;;;;22.62;42.60;100038.06;5015556;28;20881;-72
2022/06/21 08:11:11;;;;;;;3.63;1.40;;;;;;;22.60;42.42;100026.53;5027129;28;20863;-72
2022/06/21 08:13:37;;;;;;;1.45;0.90;;;;;;;22.61;42.78;100028.16;5010133;28;20418;-73
2022/06/21 08:16:13;;;;;;;3.08;1.08;;;;;;;22.61;42.90;100019.06;5021069;28;20416;-72
2022/06/21 08:18:50;;;;;;;1.90;1.00;;;;;;;22.64;43.10;100012.88;5022356;28;20476;-72
2022/06/21 08:21:23;;;;;;;3.03;1.17;;;;;;;22.72;43.06;100007.31;5028795;28;20446;-72
2022/06/21 08:24:04;;;;;;;1.63;1.00;;;;;;;22.78;43.02;100021.75;5031498;28;20407;-72
2022/06/21 08:26:44;;;;;;;9.02;2.10;;;;;;;22.79;42.93;100037.16;5032778;28;20410;-72
2022/06/21 08:29:19;;;;;;;7.25;1.20;;;;;;;22.74;42.96;100040.13;5032864;28;20415;-72
2022/06/21 08:32:04;;;;;;;2.25;1.00;;;;;;;22.84;43.18;100041.69;5034085;28;20403;-73
2022/06/21 08:34:42;;;;;;;3.83;1.20;;;;;;;22.94;43.03;100033.81;5030090;28;20456;-72
2022/06/21 08:37:25;;;;;;;6.28;1.65;;;;;;;23.04;43.19;100029.81;5030512;28;20399;-72
2022/06/21 08:40:09;;;;;;;6.20;1.25;;;;;;;23.04;43.07;100032.59;5030667;28;20415;-72
2022/06/21 08:42:52;;;;;;;2.40;1.20;;;;;;;23.02;43.42;100021.84;5027480;28;20442;-72
2022/06/21 08:45:42;;;;;;;1.98;0.93;;;;;;;23.12;43.59;100007.63;5032455;28;20411;-72
2022/06/21 08:48:45;;;;;;;2.45;1.27;;;;;;;23.19;43.46;100007.88;5032704;28;20414;-73
2022/06/21 08:51:43;;;;;;;1.57;1.07;;;;;;;23.44;43.11;100005.25;5023262;28;20434;-73
2022/06/21 08:54:30;;;;;;;6.70;1.52;;;;;;;23.74;42.52;99999.19;5013773;28;20902;-72
2022/06/21 08:57:03;;;;;;;3.40;1.10;;;;;;;23.95;42.17;99976.16;5032364;28;20461;-72
2022/06/21 08:59:58;;;;;;;3.17;1.17;;;;;;;24.07;42.15;99981.72;5029826;28;20466;-72
2022/06/21 09:02:51;;;;;;;1.95;1.30;;;;;;;24.15;42.21;99984.38;5025698;28;20732;-72
2022/06/21 09:05:48;;;;;;;3.60;1.30;;;;;;;24.14;41.96;99988.31;5030750;28;20387;-72
2022/06/21 09:08:40;;;;;;;4.65;1.80;;;;;;;23.92;42.47;99972.13;5030447;28;20461;-72
2022/06/21 09:11:39;;;;;;;6.80;1.60;;;;;;;24.00;42.73;99957.38;5030650;28;20398;-73
2022/06/21 09:14:28;;;;;;;1.15;1.05;;;;;;;24.25;42.46;99964.53;5022723;28;20406;-73
2022/06/21 09:17:14;;;;;;;1.40;1.10;;;;;;;24.49;41.86;99969.25;5027133;28;20440;-73
2022/06/21 09:19:58;;;;;;;1.98;1.10;;;;;;;24.73;41.76;99979.47;5032473;28;20846;-73
2022/06/21 09:22:40;;;;;;;4.40;1.30;;;;;;;24.96;41.43;99975.00;5029698;28;20416;-73
2022/06/21 09:25:33;;;;;;;1.15;1.05;;;;;;;25.18;41.07;99980.00;5013040;28;20403;-72
2022/06/21 09:28:09;;;;;;;4.95;1.20;;;;;;;25.35;40.59;99989.19;5027886;28;20419;-72
2022/06/21 09:30:44;;;;;;;5.57;1.38;;;;;;;25.47;40.30;99978.81;5022967;28;20516;-72
2022/06/21 09:33:22;;;;;;;3.83;1.80;;;;;;;25.58;39.71;99974.41;5030854;28;20445;-72
2022/06/21 09:36:02;;;;;;;1.10;1.00;;;;;;;25.68;39.83;99964.72;4992526;28;20961;-72
2022/06/21 09:38:41;;;;;;;2.05;1.23;;;;;;;25.86;39.64;99971.53;5008853;28;20488;-72
2022/06/21 09:41:11;;;;;;;1.67;1.05;;;;;;;26.10;39.48;99973.31;5027791;28;20397;-72
2022/06/21 09:44:14;;;;;;;1.40;1.30;;;;;;;26.28;39.34;99975.38;5028480;28;20414;-72
2022/06/21 09:47:21;;;;;;;4.73;1.43;;;;;;;26.51;38.87;99971.94;5012231;28;20510;-72
2022/06/21 09:49:59;;;;;;;3.75;1.45;;;;;;;26.70;38.99;99964.41;4936218;29;20491;-72
2022/06/21 09:52:30;;;;;;;4.43;1.25;;;;;;;26.98;38.57;99963.41;5019515;28;20410;-72
2022/06/21 09:55:12;;;;;;;7.80;1.30;;;;;;;27.31;37.92;99969.25;5028026;28;20452;-72
2022/06/21 09:57:48;;;;;;;6.88;1.23;;;;;;;27.39;37.29;99968.22;5026325;28;20497;-72
2022/06/21 10:00:22;;;;;;;6.22;1.90;;;;;;;27.83;36.94;99954.69;5028066;28;20460;-72
2022/06/21 10:03:26;;;;;;;4.07;2.00;;;;;;;28.51;36.26;99959.38;5028436;28;20435;-72
2022/06/21 10:05:59;;;;;;;1.70;1.60;;;;;;;30.05;33.62;99959.53;5013606;28;20885;-72
2022/06/21 10:08:43;;;;;;;2.13;1.70;;;;;;;30.97;32.54;99959.31;5031714;28;20414;-72
2022/06/21 10:11:26;;;;;;;4.22;1.40;;;;;;;31.78;30.97;99946.31;5019057;28;20414;-72
2022/06/21 10:14:24;;;;;;;3.08;1.95;;;;;;;32.41;30.68;99953.09;5029261;28;20743;-72
2022/06/21 10:17:01;;;;;;;1.95;1.80;;;;;;;32.54;30.54;99957.06;5030510;28;20904;-72
2022/06/21 10:19:51;;;;;;;1.60;1.60;;;;;;;32.81;30.65;99951.81;5017789;28;20401;-72
2022/06/21 10:22:41;;;;;;;2.03;1.92;;;;;;;33.33;29.77;99949.97;5023067;28;20404;-72
2022/06/21 10:25:32;;;;;;;2.63;1.97;;;;;;;34.22;28.27;99942.47;5028075;28;20492;-72
2022/06/21 10:28:18;;;;;;;3.00;1.48;;;;;;;34.94;26.95;99937.69;5031869;28;20398;-72
2022/06/21 10:31:15;;;;;;;3.63;1.52;;;;;;;35.41;25.73;99933.81;5004001;28;20425;-72
2022/06/21 10:34:14;;;;;;;1.40;1.30;;;;;;;36.22;25.33;99936.56;5017354;28;20540;-73
2022/06/21 10:36:51;;;;;;;2.50;1.50;;;;;;;36.24;25.05;99932.06;5021349;28;20549;-73
2022/06/21 10:39:26;;;;;;;2.38;1.50;;;;;;;36.48;24.32;99921.53;5026105;28;20481;-72
2022/06/21 10:45:02;;;;;;;1.60;1.50;;;;;;;37.14;24.45;99934.75;5024107;28;20904;-71
2022/06/21 10:47:52;;;;;;;2.60;1.65;;;;;;;37.82;23.19;99920.59;5031585;28;20817;-71
2022/06/21 10:50:36;;;;;;;2.67;1.80;;;;;;;38.07;22.48;99939.81;4993686;28;20407;-71
2022/06/21 10:53:18;;;;;;;1.60;1.50;;;;;;;38.11;22.36;99949.78;5030715;28;20423;-71
2022/06/21 10:57:09;;;;;;;1.77;1.67;;;;;;;37.68;22.99;99944.38;5021231;28;20412;-72
2022/06/21 10:58:45;;;;;;;1.33;1.20;;;;;;;37.34;23.35;99941.16;5031970;28;20411;-71
2022/06/21 11:01:40;;;;;;;2.25;1.10;;;;;;;38.37;22.10;99936.56;5021157;28;20405;-71
2022/06/21 11:04:14;;;;;;;4.10;1.60;;;;;;;38.68;21.46;99936.94;5030582;28;20450;-71
2022/06/21 11:06:50;;;;;;;3.60;1.45;;;;;;;38.82;21.33;99930.88;5031126;28;20486;-70
2022/06/21 11:09:37;;;;;;;3.58;1.65;;;;;;;37.84;22.15;99926.63;5025416;28;20402;-70
2022/06/21 11:15:21;;;;;;;2.67;1.33;;;;;;;38.80;21.32;99922.00;5029664;28;20411;-71
2022/06/21 11:17:55;;;;;;;6.57;1.27;;;;;;;39.25;20.51;99919.88;5031289;28;20406;-71
2022/06/21 11:20:33;;;;;;;3.10;1.80;;;;;;;39.21;20.28;99915.53;5028505;28;20910;-71
2022/06/21 11:23:20;;;;;;;2.35;1.27;;;;;;;38.70;20.81;99903.28;5027889;28;20425;-71
2022/06/21 11:25:57;;;;;;;3.30;1.45;;;;;;;38.56;21.31;99896.00;5026518;28;20474;-70
2022/06/21 11:28:25;;;;;;;5.22;1.50;;;;;;;38.46;21.73;99894.28;5029160;28;20392;-71
2022/06/21 11:30:57;;;;;;;4.38;1.17;;;;;;;38.24;21.48;99885.53;5030865;28;20486;-71
2022/06/21 11:33:54;;;;;;;2.38;1.63;;;;;;;37.69;21.64;99877.31;5029653;28;20499;-71
2022/06/21 11:36:28;;;;;;;3.10;1.42;;;;;;;37.22;22.15;99877.63;5027129;28;20446;-71
2022/06/21 11:39:32;;;;;;;3.57;1.67;;;;;;;36.76;22.57;99878.63;5030262;28;20457;-71
2022/06/21 11:42:12;;;;;;;5.07;1.90;;;;;;;36.71;22.77;99887.63;5028775;28;21073;-71
2022/06/21 11:45:15;;;;;;;2.75;1.42;;;;;;;36.78;22.79;99884.66;5025482;28;20902;-71
2022/06/21 11:47:57;;;;;;;2.80;1.50;;;;;;;36.66;22.94;99885.28;5028231;28;20415;-71
2022/06/21 11:50:27;;;;;;;2.58;1.30;;;;;;;36.67;23.30;99878.44;5023778;28;20466;-71
2022/06/21 11:53:14;;;;;;;1.67;1.30;;;;;;;36.82;22.81;99874.06;5024653;28;20405;-71
2022/06/21 11:55:42;;;;;;;3.83;1.50;;;;;;;36.91;22.95;99865.81;5023342;28;20480;-71
2022/06/21 11:58:35;;;;;;;3.15;1.33;;;;;;;37.57;22.40;99873.19;5027055;28;20481;-71
2022/06/21 12:01:11;;;;;;;2.80;1.10;;;;;;;37.86;22.00;99864.75;5026913;28;20418;-72
2022/06/21 12:03:55;;;;;;;1.58;1.48;;;;;;;38.04;21.70;99855.81;5024946;28;20496;-71
2022/06/21 12:06:32;;;;;;;4.03;1.55;;;;;;;38.10;21.42;99852.00;5020685;28;20582;-71
2022/06/21 12:09:06;;;;;;;5.10;1.65;;;;;;;38.22;21.58;99842.75;5027217;28;20407;-71
2022/06/21 12:12:07;;;;;;;3.88;1.67;;;;;;;38.09;21.64;99833.44;5030303;28;20395;-71
2022/06/21 12:15:15;;;;;;;3.13;1.60;;;;;;;37.74;21.88;99823.06;5008528;28;20430;-71
2022/06/21 12:17:51;;;;;;;3.00;1.70;;;;;;;37.86;21.98;99823.13;5026055;28;20399;-71
2022/06/21 12:20:55;;;;;;;3.03;1.38;;;;;;;37.74;22.00;99825.88;5025461;28;20399;-71
2022/06/21 12:23:32;;;;;;;2.92;1.40;;;;;;;37.64;21.80;99818.47;4979354;28;20754;-71
2022/06/21 12:25:57;;;;;;;3.28;1.77;;;;;;;37.46;22.45;99816.09;5024730;28;20837;-71